sensor_id;sensor_type;location;lat;lon;timestamp;pressure;altitude;pressure_sealevel;temperature
74493;BMP180;62978;51.094;-115.362;2022-08-30T00:01:13;87211.20;;;34.16
74493;BMP180;62978;51.094;-115.362;2022-08-30T00:03:45;87194.00;;;34.42
74493;BMP180;62978;51.094;-115.362;2022-08-30T00:06:16;87237.40;;;34.56
74493;BMP180;62978;51.094;-115.362;2022-08-30T00:08:45;87191.00;;;35.28
74493;BMP180;62978;51.094;-115.362;2022-08-30T00:11:21;87196.60;;;35.36
74493;BMP180;62978;51.094;-115.362;2022-08-30T00:13:52;87231.80;;;35.60
74493;BMP180;62978;51.094;-115.362;2022-08-30T00:16:21;87208.00;;;35.62
74493;BMP180;62978;51.094;-115.362;2022-08-30T00:18:49;87210.00;;;36.20
74493;BMP180;62978;51.094;-115.362;2022-08-30T00:21:16;87196.00;;;35.58
74493;BMP180;62978;51.094;-115.362;2022-08-30T00:23:47;87204.40;;;35.94
74493;BMP180;62978;51.094;-115.362;2022-08-30T00:26:14;87203.00;;;36.02
74493;BMP180;62978;51.094;-115.362;2022-08-30T00:28:42;87247.80;;;35.66
74493;BMP180;62978;51.094;-115.362;2022-08-30T00:31:09;87264.60;;;33.42
74493;BMP180;62978;51.094;-115.362;2022-08-30T00:33:39;87244.80;;;33.28
74493;BMP180;62978;51.094;-115.362;2022-08-30T00:36:06;87229.00;;;33.36
74493;BMP180;62978;51.094;-115.362;2022-08-30T00:38:33;87270.40;;;32.66
74493;BMP180;62978;51.094;-115.362;2022-08-30T00:41:01;87264.80;;;31.70
74493;BMP180;62978;51.094;-115.362;2022-08-30T00:43:31;87247.80;;;31.84
74493;BMP180;62978;51.094;-115.362;2022-08-30T00:46:00;87256.00;;;30.62
74493;BMP180;62978;51.094;-115.362;2022-08-30T00:48:40;87229.60;;;30.90
74493;BMP180;62978;51.094;-115.362;2022-08-30T00:51:12;87238.00;;;31.66
74493;BMP180;62978;51.094;-115.362;2022-08-30T00:53:48;87238.80;;;32.52
74493;BMP180;62978;51.094;-115.362;2022-08-30T00:56:17;87238.60;;;33.18
74493;BMP180;62978;51.094;-115.362;2022-08-30T00:58:50;87259.60;;;33.22
74493;BMP180;62978;51.094;-115.362;2022-08-30T01:01:18;87267.40;;;31.52
74493;BMP180;62978;51.094;-115.362;2022-08-30T01:03:47;87270.00;;;30.12
74493;BMP180;62978;51.094;-115.362;2022-08-30T01:06:16;87271.20;;;29.16
74493;BMP180;62978;51.094;-115.362;2022-08-30T01:08:45;87273.00;;;28.80
74493;BMP180;62978;51.094;-115.362;2022-08-30T01:11:17;87274.00;;;28.16
74493;BMP180;62978;51.094;-115.362;2022-08-30T01:13:47;87270.20;;;27.50
74493;BMP180;62978;51.094;-115.362;2022-08-30T01:16:16;87275.40;;;27.20
74493;BMP180;62978;51.094;-115.362;2022-08-30T01:18:44;87270.80;;;26.90
74493;BMP180;62978;51.094;-115.362;2022-08-30T01:21:41;87265.00;;;26.40
74493;BMP180;62978;51.094;-115.362;2022-08-30T01:24:11;87267.80;;;26.10
74493;BMP180;62978;51.094;-115.362;2022-08-30T01:26:39;87267.00;;;25.90
74493;BMP180;62978;51.094;-115.362;2022-08-30T01:29:12;87273.00;;;25.52
74493;BMP180;62978;51.094;-115.362;2022-08-30T01:31:41;87272.00;;;25.22
74493;BMP180;62978;51.094;-115.362;2022-08-30T01:34:09;87269.40;;;25.00
74493;BMP180;62978;51.094;-115.362;2022-08-30T01:36:38;87270.60;;;24.64
74493;BMP180;62978;51.094;-115.362;2022-08-30T01:39:05;87278.40;;;24.40
74493;BMP180;62978;51.094;-115.362;2022-08-30T01:41:35;87275.80;;;24.06
74493;BMP180;62978;51.094;-115.362;2022-08-30T01:44:09;87274.40;;;23.78
74493;BMP180;62978;51.094;-115.362;2022-08-30T01:46:44;87276.60;;;23.50
74493;BMP180;62978;51.094;-115.362;2022-08-30T01:49:17;87276.80;;;23.30
74493;BMP180;62978;51.094;-115.362;2022-08-30T01:51:44;87284.80;;;23.20
74493;BMP180;62978;51.094;-115.362;2022-08-30T01:54:12;87290.00;;;23.02
74493;BMP180;62978;51.094;-115.362;2022-08-30T01:56:40;87282.00;;;22.70
74493;BMP180;62978;51.094;-115.362;2022-08-30T01:59:07;87288.80;;;22.60
74493;BMP180;62978;51.094;-115.362;2022-08-30T02:01:36;87288.00;;;22.40
74493;BMP180;62978;51.094;-115.362;2022-08-30T02:04:07;87286.80;;;22.28
74493;BMP180;62978;51.094;-115.362;2022-08-30T02:06:38;87289.40;;;22.10
74493;BMP180;62978;51.094;-115.362;2022-08-30T02:09:06;87291.20;;;21.78
74493;BMP180;62978;51.094;-115.362;2022-08-30T02:11:33;87296.60;;;21.58
74493;BMP180;62978;51.094;-115.362;2022-08-30T02:14:00;87294.80;;;21.40
74493;BMP180;62978;51.094;-115.362;2022-08-30T02:16:27;87300.40;;;21.20
74493;BMP180;62978;51.094;-115.362;2022-08-30T02:18:55;87299.40;;;21.08
74493;BMP180;62978;51.094;-115.362;2022-08-30T02:21:23;87299.60;;;20.82
74493;BMP180;62978;51.094;-115.362;2022-08-30T02:23:51;87308.60;;;20.60
74493;BMP180;62978;51.094;-115.362;2022-08-30T02:26:20;87312.60;;;20.32
74493;BMP180;62978;51.094;-115.362;2022-08-30T02:28:48;87310.60;;;20.16
74493;BMP180;62978;51.094;-115.362;2022-08-30T02:31:17;87314.80;;;19.90
74493;BMP180;62978;51.094;-115.362;2022-08-30T02:33:45;87312.00;;;19.80
74493;BMP180;62978;51.094;-115.362;2022-08-30T02:36:13;87313.00;;;19.70
74493;BMP180;62978;51.094;-115.362;2022-08-30T02:38:40;87315.20;;;19.60
74493;BMP180;62978;51.094;-115.362;2022-08-30T02:41:08;87319.60;;;19.30
74493;BMP180;62978;51.094;-115.362;2022-08-30T02:43:35;87318.20;;;19.20
74493;BMP180;62978;51.094;-115.362;2022-08-30T02:46:02;87325.80;;;19.00
74493;BMP180;62978;51.094;-115.362;2022-08-30T02:48:29;87325.40;;;18.82
74493;BMP180;62978;51.094;-115.362;2022-08-30T02:51:08;87325.40;;;18.70
74493;BMP180;62978;51.094;-115.362;2022-08-30T02:53:36;87325.60;;;18.50
74493;BMP180;62978;51.094;-115.362;2022-08-30T02:56:04;87326.60;;;18.38
74493;BMP180;62978;51.094;-115.362;2022-08-30T02:58:31;87333.40;;;18.20
74493;BMP180;62978;51.094;-115.362;2022-08-30T03:00:58;87334.20;;;18.10
74493;BMP180;62978;51.094;-115.362;2022-08-30T03:03:27;87337.60;;;18.00
74493;BMP180;62978;51.094;-115.362;2022-08-30T03:05:54;87339.40;;;17.90
74493;BMP180;62978;51.094;-115.362;2022-08-30T03:08:21;87345.40;;;17.80
74493;BMP180;62978;51.094;-115.362;2022-08-30T03:10:48;87348.60;;;17.74
74493;BMP180;62978;51.094;-115.362;2022-08-30T03:13:15;87351.40;;;17.70
74493;BMP180;62978;51.094;-115.362;2022-08-30T03:15:42;87342.20;;;17.70
74493;BMP180;62978;51.094;-115.362;2022-08-30T03:18:10;87346.40;;;17.60
74493;BMP180;62978;51.094;-115.362;2022-08-30T03:20:37;87349.20;;;17.50
74493;BMP180;62978;51.094;-115.362;2022-08-30T03:23:05;87354.00;;;17.40
74493;BMP180;62978;51.094;-115.362;2022-08-30T03:25:32;87359.00;;;17.30
74493;BMP180;62978;51.094;-115.362;2022-08-30T03:28:00;87364.40;;;17.20
74493;BMP180;62978;51.094;-115.362;2022-08-30T03:30:28;87364.60;;;17.20
74493;BMP180;62978;51.094;-115.362;2022-08-30T03:32:54;87364.00;;;17.10
74493;BMP180;62978;51.094;-115.362;2022-08-30T03:35:22;87366.20;;;17.10
74493;BMP180;62978;51.094;-115.362;2022-08-30T03:37:49;87356.00;;;17.10
74493;BMP180;62978;51.094;-115.362;2022-08-30T03:40:19;87357.60;;;17.08
74493;BMP180;62978;51.094;-115.362;2022-08-30T03:42:47;87355.80;;;17.00
74493;BMP180;62978;51.094;-115.362;2022-08-30T03:45:17;87353.40;;;17.00
74493;BMP180;62978;51.094;-115.362;2022-08-30T03:47:44;87352.00;;;16.90
74493;BMP180;62978;51.094;-115.362;2022-08-30T03:50:15;87350.80;;;16.90
74493;BMP180;62978;51.094;-115.362;2022-08-30T03:52:45;87355.40;;;16.90
74493;BMP180;62978;51.094;-115.362;2022-08-30T03:55:13;87355.20;;;16.80
74493;BMP180;62978;51.094;-115.362;2022-08-30T03:57:40;87348.60;;;16.72
74493;BMP180;62978;51.094;-115.362;2022-08-30T04:00:08;87359.40;;;16.70
74493;BMP180;62978;51.094;-115.362;2022-08-30T04:02:36;87364.80;;;16.68
74493;BMP180;62978;51.094;-115.362;2022-08-30T04:05:09;87356.40;;;16.70
74493;BMP180;62978;51.094;-115.362;2022-08-30T04:07:37;87368.40;;;16.60
74493;BMP180;62978;51.094;-115.362;2022-08-30T04:10:08;87377.40;;;16.60
74493;BMP180;62978;51.094;-115.362;2022-08-30T04:12:36;87377.60;;;16.60
74493;BMP180;62978;51.094;-115.362;2022-08-30T04:15:04;87382.80;;;16.50
74493;BMP180;62978;51.094;-115.362;2022-08-30T04:17:32;87379.60;;;16.40
74493;BMP180;62978;51.094;-115.362;2022-08-30T04:19:59;87381.60;;;16.30
74493;BMP180;62978;51.094;-115.362;2022-08-30T04:22:26;87388.40;;;16.22
74493;BMP180;62978;51.094;-115.362;2022-08-30T04:24:54;87385.60;;;16.10
74493;BMP180;62978;51.094;-115.362;2022-08-30T04:27:21;87387.80;;;16.10
74493;BMP180;62978;51.094;-115.362;2022-08-30T04:29:48;87385.80;;;15.94
74493;BMP180;62978;51.094;-115.362;2022-08-30T04:32:16;87387.40;;;15.86
74493;BMP180;62978;51.094;-115.362;2022-08-30T04:34:43;87392.20;;;15.80
74493;BMP180;62978;51.094;-115.362;2022-08-30T04:37:10;87393.60;;;15.70
74493;BMP180;62978;51.094;-115.362;2022-08-30T04:39:39;87392.80;;;15.70
74493;BMP180;62978;51.094;-115.362;2022-08-30T04:42:08;87393.20;;;15.70
74493;BMP180;62978;51.094;-115.362;2022-08-30T04:44:36;87393.40;;;15.70
74493;BMP180;62978;51.094;-115.362;2022-08-30T04:47:03;87391.60;;;15.70
74493;BMP180;62978;51.094;-115.362;2022-08-30T04:49:30;87393.60;;;15.60
74493;BMP180;62978;51.094;-115.362;2022-08-30T04:51:58;87401.20;;;15.50
74493;BMP180;62978;51.094;-115.362;2022-08-30T04:54:25;87397.80;;;15.50
74493;BMP180;62978;51.094;-115.362;2022-08-30T04:56:53;87396.00;;;15.50
74493;BMP180;62978;51.094;-115.362;2022-08-30T04:59:20;87399.00;;;15.50
74493;BMP180;62978;51.094;-115.362;2022-08-30T05:01:47;87398.00;;;15.46
74493;BMP180;62978;51.094;-115.362;2022-08-30T05:04:14;87397.40;;;15.40
74493;BMP180;62978;51.094;-115.362;2022-08-30T05:06:42;87400.20;;;15.40
74493;BMP180;62978;51.094;-115.362;2022-08-30T05:09:09;87396.80;;;15.30
74493;BMP180;62978;51.094;-115.362;2022-08-30T05:11:36;87404.00;;;15.20
74493;BMP180;62978;51.094;-115.362;2022-08-30T05:14:04;87408.00;;;15.20
74493;BMP180;62978;51.094;-115.362;2022-08-30T05:16:31;87417.00;;;15.20
74493;BMP180;62978;51.094;-115.362;2022-08-30T05:18:59;87420.80;;;15.10
74493;BMP180;62978;51.094;-115.362;2022-08-30T05:21:28;87423.00;;;15.06
74493;BMP180;62978;51.094;-115.362;2022-08-30T05:23:58;87426.40;;;15.00
74493;BMP180;62978;51.094;-115.362;2022-08-30T05:26:32;87425.20;;;14.90
74493;BMP180;62978;51.094;-115.362;2022-08-30T05:29:00;87435.40;;;14.80
74493;BMP180;62978;51.094;-115.362;2022-08-30T05:31:35;87436.00;;;14.80
74493;BMP180;62978;51.094;-115.362;2022-08-30T05:34:03;87438.80;;;14.70
74493;BMP180;62978;51.094;-115.362;2022-08-30T05:36:34;87441.60;;;14.70
74493;BMP180;62978;51.094;-115.362;2022-08-30T05:39:02;87440.40;;;14.62
74493;BMP180;62978;51.094;-115.362;2022-08-30T05:41:30;87445.60;;;14.60
74493;BMP180;62978;51.094;-115.362;2022-08-30T05:44:00;87448.60;;;14.60
74493;BMP180;62978;51.094;-115.362;2022-08-30T05:46:30;87443.80;;;14.60
74493;BMP180;62978;51.094;-115.362;2022-08-30T05:49:03;87444.20;;;14.54
74493;BMP180;62978;51.094;-115.362;2022-08-30T05:51:35;87448.00;;;14.50
74493;BMP180;62978;51.094;-115.362;2022-08-30T05:54:03;87449.60;;;14.50
74493;BMP180;62978;51.094;-115.362;2022-08-30T05:56:35;87445.80;;;14.42
74493;BMP180;62978;51.094;-115.362;2022-08-30T05:59:06;87456.40;;;14.40
74493;BMP180;62978;51.094;-115.362;2022-08-30T06:01:38;87455.00;;;14.32
74493;BMP180;62978;51.094;-115.362;2022-08-30T06:04:09;87456.80;;;14.30
74493;BMP180;62978;51.094;-115.362;2022-08-30T06:06:39;87460.80;;;14.20
74493;BMP180;62978;51.094;-115.362;2022-08-30T06:09:10;87460.60;;;14.10
74493;BMP180;62978;51.094;-115.362;2022-08-30T06:11:37;87460.60;;;14.10
74493;BMP180;62978;51.094;-115.362;2022-08-30T06:14:05;87459.60;;;14.10
74493;BMP180;62978;51.094;-115.362;2022-08-30T06:16:33;87455.20;;;14.10
74493;BMP180;62978;51.094;-115.362;2022-08-30T06:19:01;87454.40;;;14.00
74493;BMP180;62978;51.094;-115.362;2022-08-30T06:21:32;87459.60;;;14.00
74493;BMP180;62978;51.094;-115.362;2022-08-30T06:24:02;87456.80;;;13.90
74493;BMP180;62978;51.094;-115.362;2022-08-30T06:26:30;87452.80;;;13.90
74493;BMP180;62978;51.094;-115.362;2022-08-30T06:28:57;87455.00;;;13.82
74493;BMP180;62978;51.094;-115.362;2022-08-30T06:31:25;87456.60;;;13.84
74493;BMP180;62978;51.094;-115.362;2022-08-30T06:33:53;87459.80;;;13.80
74493;BMP180;62978;51.094;-115.362;2022-08-30T06:36:23;87459.60;;;13.80
74493;BMP180;62978;51.094;-115.362;2022-08-30T06:38:54;87465.40;;;13.80
74493;BMP180;62978;51.094;-115.362;2022-08-30T06:41:25;87465.60;;;13.80
74493;BMP180;62978;51.094;-115.362;2022-08-30T06:43:55;87473.00;;;13.80
74493;BMP180;62978;51.094;-115.362;2022-08-30T06:46:29;87473.80;;;13.80
74493;BMP180;62978;51.094;-115.362;2022-08-30T06:48:58;87481.40;;;13.70
74493;BMP180;62978;51.094;-115.362;2022-08-30T06:51:31;87481.00;;;13.70
74493;BMP180;62978;51.094;-115.362;2022-08-30T06:54:00;87480.40;;;13.70
74493;BMP180;62978;51.094;-115.362;2022-08-30T06:56:28;87482.20;;;13.70
74493;BMP180;62978;51.094;-115.362;2022-08-30T06:58:56;87482.80;;;13.60
74493;BMP180;62978;51.094;-115.362;2022-08-30T07:01:26;87488.20;;;13.60
74493;BMP180;62978;51.094;-115.362;2022-08-30T07:03:54;87488.00;;;13.60
74493;BMP180;62978;51.094;-115.362;2022-08-30T07:06:23;87485.80;;;13.60
74493;BMP180;62978;51.094;-115.362;2022-08-30T07:08:51;87487.20;;;13.60
74493;BMP180;62978;51.094;-115.362;2022-08-30T07:11:31;87491.00;;;13.60
74493;BMP180;62978;51.094;-115.362;2022-08-30T07:14:00;87484.60;;;13.60
74493;BMP180;62978;51.094;-115.362;2022-08-30T07:16:28;87487.00;;;13.58
74493;BMP180;62978;51.094;-115.362;2022-08-30T07:18:56;87490.00;;;13.50
74493;BMP180;62978;51.094;-115.362;2022-08-30T07:21:30;87493.60;;;13.40
74493;BMP180;62978;51.094;-115.362;2022-08-30T07:23:59;87497.20;;;13.40
74493;BMP180;62978;51.094;-115.362;2022-08-30T07:26:32;87497.40;;;13.40
74493;BMP180;62978;51.094;-115.362;2022-08-30T07:29:00;87497.20;;;13.40
74493;BMP180;62978;51.094;-115.362;2022-08-30T07:31:28;87498.80;;;13.40
74493;BMP180;62978;51.094;-115.362;2022-08-30T07:33:55;87498.80;;;13.38
74493;BMP180;62978;51.094;-115.362;2022-08-30T07:36:23;87503.20;;;13.30
74493;BMP180;62978;51.094;-115.362;2022-08-30T07:38:51;87502.60;;;13.30
74493;BMP180;62978;51.094;-115.362;2022-08-30T07:41:30;87506.00;;;13.20
74493;BMP180;62978;51.094;-115.362;2022-08-30T07:43:58;87518.00;;;13.20
74493;BMP180;62978;51.094;-115.362;2022-08-30T07:46:25;87522.40;;;13.20
74493;BMP180;62978;51.094;-115.362;2022-08-30T07:48:54;87512.40;;;13.20
74493;BMP180;62978;51.094;-115.362;2022-08-30T07:51:24;87514.60;;;13.20
74493;BMP180;62978;51.094;-115.362;2022-08-30T07:53:53;87516.60;;;13.20
74493;BMP180;62978;51.094;-115.362;2022-08-30T07:56:21;87514.80;;;13.20
74493;BMP180;62978;51.094;-115.362;2022-08-30T07:58:49;87520.40;;;13.10
74493;BMP180;62978;51.094;-115.362;2022-08-30T08:01:18;87521.40;;;13.12
74493;BMP180;62978;51.094;-115.362;2022-08-30T08:03:46;87525.20;;;13.10
74493;BMP180;62978;51.094;-115.362;2022-08-30T08:06:15;87529.80;;;13.10
74493;BMP180;62978;51.094;-115.362;2022-08-30T08:08:43;87529.40;;;13.00
74493;BMP180;62978;51.094;-115.362;2022-08-30T08:11:25;87528.60;;;13.04
74493;BMP180;62978;51.094;-115.362;2022-08-30T08:13:54;87528.60;;;13.02
74493;BMP180;62978;51.094;-115.362;2022-08-30T08:16:24;87521.40;;;13.00
74493;BMP180;62978;51.094;-115.362;2022-08-30T08:18:52;87521.60;;;13.00
74493;BMP180;62978;51.094;-115.362;2022-08-30T08:21:21;87524.40;;;13.00
74493;BMP180;62978;51.094;-115.362;2022-08-30T08:23:49;87520.60;;;13.00
74493;BMP180;62978;51.094;-115.362;2022-08-30T08:26:18;87527.00;;;13.00
74493;BMP180;62978;51.094;-115.362;2022-08-30T08:28:45;87520.40;;;13.02
74493;BMP180;62978;51.094;-115.362;2022-08-30T08:31:23;87527.20;;;13.10
74493;BMP180;62978;51.094;-115.362;2022-08-30T08:33:50;87530.20;;;13.10
74493;BMP180;62978;51.094;-115.362;2022-08-30T08:36:17;87528.20;;;13.00
74493;BMP180;62978;51.094;-115.362;2022-08-30T08:38:45;87530.20;;;12.90
74493;BMP180;62978;51.094;-115.362;2022-08-30T08:44:59;87532.80;;;12.80
74493;BMP180;62978;51.094;-115.362;2022-08-30T08:50:18;87531.80;;;12.70
74493;BMP180;62978;51.094;-115.362;2022-08-30T08:53:11;87535.60;;;12.62
74493;BMP180;62978;51.094;-115.362;2022-08-30T08:55:58;87534.60;;;12.60
74493;BMP180;62978;51.094;-115.362;2022-08-30T08:58:38;87538.00;;;12.60
74493;BMP180;62978;51.094;-115.362;2022-08-30T09:01:10;87537.80;;;12.60
74493;BMP180;62978;51.094;-115.362;2022-08-30T09:03:38;87538.40;;;12.60
74493;BMP180;62978;51.094;-115.362;2022-08-30T09:08:50;87542.60;;;12.50
74493;BMP180;62978;51.094;-115.362;2022-08-30T09:11:27;87538.60;;;12.40
74493;BMP180;62978;51.094;-115.362;2022-08-30T09:13:56;87541.40;;;12.40
74493;BMP180;62978;51.094;-115.362;2022-08-30T09:19:57;87538.60;;;12.38
74493;BMP180;62978;51.094;-115.362;2022-08-30T09:22:40;87536.40;;;12.30
74493;BMP180;62978;51.094;-115.362;2022-08-30T09:25:24;87539.60;;;12.30
74493;BMP180;62978;51.094;-115.362;2022-08-30T09:27:55;87541.00;;;12.30
74493;BMP180;62978;51.094;-115.362;2022-08-30T09:30:34;87543.60;;;12.20
74493;BMP180;62978;51.094;-115.362;2022-08-30T09:33:06;87545.80;;;12.20
74493;BMP180;62978;51.094;-115.362;2022-08-30T09:35:48;87549.20;;;12.20
74493;BMP180;62978;51.094;-115.362;2022-08-30T09:38:29;87550.40;;;12.20
74493;BMP180;62978;51.094;-115.362;2022-08-30T09:41:24;87546.60;;;12.20
74493;BMP180;62978;51.094;-115.362;2022-08-30T09:44:25;87545.40;;;12.12
74493;BMP180;62978;51.094;-115.362;2022-08-30T09:47:00;87538.80;;;12.10
74493;BMP180;62978;51.094;-115.362;2022-08-30T09:49:40;87546.40;;;12.02
74493;BMP180;62978;51.094;-115.362;2022-08-30T10:01:04;87551.00;;;12.00
74493;BMP180;62978;51.094;-115.362;2022-08-30T10:06:56;87555.00;;;11.90
74493;BMP180;62978;51.094;-115.362;2022-08-30T10:12:26;87559.80;;;11.90
74493;BMP180;62978;51.094;-115.362;2022-08-30T10:17:55;87563.40;;;11.80
74493;BMP180;62978;51.094;-115.362;2022-08-30T10:21:03;87565.40;;;11.80
74493;BMP180;62978;51.094;-115.362;2022-08-30T10:23:41;87559.80;;;11.80
74493;BMP180;62978;51.094;-115.362;2022-08-30T10:26:47;87562.60;;;11.80
74493;BMP180;62978;51.094;-115.362;2022-08-30T10:29:58;87559.00;;;11.70
74493;BMP180;62978;51.094;-115.362;2022-08-30T10:35:33;87559.60;;;11.60
74493;BMP180;62978;51.094;-115.362;2022-08-30T10:38:17;87564.80;;;11.56
74493;BMP180;62978;51.094;-115.362;2022-08-30T10:41:00;87558.00;;;11.50
74493;BMP180;62978;51.094;-115.362;2022-08-30T10:44:02;87564.20;;;11.50
74493;BMP180;62978;51.094;-115.362;2022-08-30T10:47:15;87563.60;;;11.40
74493;BMP180;62978;51.094;-115.362;2022-08-30T10:49:46;87565.80;;;11.36
74493;BMP180;62978;51.094;-115.362;2022-08-30T10:55:48;87564.80;;;11.28
74493;BMP180;62978;51.094;-115.362;2022-08-30T10:58:17;87568.80;;;11.30
74493;BMP180;62978;51.094;-115.362;2022-08-30T11:01:13;87565.40;;;11.30
74493;BMP180;62978;51.094;-115.362;2022-08-30T11:09:47;87576.20;;;11.20
74493;BMP180;62978;51.094;-115.362;2022-08-30T11:12:34;87577.80;;;11.20
74493;BMP180;62978;51.094;-115.362;2022-08-30T11:15:19;87575.60;;;11.10
74493;BMP180;62978;51.094;-115.362;2022-08-30T11:18:10;87580.60;;;11.10
74493;BMP180;62978;51.094;-115.362;2022-08-30T11:20:42;87582.60;;;11.10
74493;BMP180;62978;51.094;-115.362;2022-08-30T11:23:33;87584.00;;;11.10
74493;BMP180;62978;51.094;-115.362;2022-08-30T11:26:11;87588.00;;;11.10
74493;BMP180;62978;51.094;-115.362;2022-08-30T11:28:58;87587.60;;;11.10
74493;BMP180;62978;51.094;-115.362;2022-08-30T11:31:38;87595.60;;;11.00
74493;BMP180;62978;51.094;-115.362;2022-08-30T11:34:06;87594.60;;;10.98
74493;BMP180;62978;51.094;-115.362;2022-08-30T11:36:59;87592.60;;;10.90
74493;BMP180;62978;51.094;-115.362;2022-08-30T11:48:38;87597.40;;;10.90
74493;BMP180;62978;51.094;-115.362;2022-08-30T11:51:29;87597.80;;;10.82
74493;BMP180;62978;51.094;-115.362;2022-08-30T11:54:36;87599.80;;;10.80
74493;BMP180;62978;51.094;-115.362;2022-08-30T12:00:08;87608.40;;;10.80
74493;BMP180;62978;51.094;-115.362;2022-08-30T12:03:02;87607.00;;;10.80
74493;BMP180;62978;51.094;-115.362;2022-08-30T12:10:58;87610.00;;;10.70
74493;BMP180;62978;51.094;-115.362;2022-08-30T12:16:13;87617.40;;;10.60
74493;BMP180;62978;51.094;-115.362;2022-08-30T12:18:55;87621.20;;;10.60
74493;BMP180;62978;51.094;-115.362;2022-08-30T12:21:34;87617.20;;;10.60
74493;BMP180;62978;51.094;-115.362;2022-08-30T12:24:36;87620.20;;;10.60
74493;BMP180;62978;51.094;-115.362;2022-08-30T12:27:32;87620.40;;;10.60
74493;BMP180;62978;51.094;-115.362;2022-08-30T12:30:06;87620.20;;;10.50
74493;BMP180;62978;51.094;-115.362;2022-08-30T12:32:43;87624.40;;;10.42
74493;BMP180;62978;51.094;-115.362;2022-08-30T12:35:22;87626.60;;;10.40
74493;BMP180;62978;51.094;-115.362;2022-08-30T12:38:18;87629.60;;;10.40
74493;BMP180;62978;51.094;-115.362;2022-08-30T12:41:00;87628.40;;;10.40
74493;BMP180;62978;51.094;-115.362;2022-08-30T12:43:34;87630.80;;;10.40
74493;BMP180;62978;51.094;-115.362;2022-08-30T12:46:10;87632.60;;;10.34
74493;BMP180;62978;51.094;-115.362;2022-08-30T12:48:39;87623.60;;;10.30
74493;BMP180;62978;51.094;-115.362;2022-08-30T12:51:07;87630.80;;;10.30
74493;BMP180;62978;51.094;-115.362;2022-08-30T12:53:51;87624.20;;;10.20
74493;BMP180;62978;51.094;-115.362;2022-08-30T12:56:19;87627.60;;;10.20
74493;BMP180;62978;51.094;-115.362;2022-08-30T12:58:51;87626.80;;;10.12
74493;BMP180;62978;51.094;-115.362;2022-08-30T13:01:30;87629.20;;;10.16
74493;BMP180;62978;51.094;-115.362;2022-08-30T13:04:20;87633.20;;;10.10
74493;BMP180;62978;51.094;-115.362;2022-08-30T13:07:04;87634.80;;;10.14
74493;BMP180;62978;51.094;-115.362;2022-08-30T13:09:37;87631.40;;;10.10
74493;BMP180;62978;51.094;-115.362;2022-08-30T13:12:24;87638.40;;;10.10
74493;BMP180;62978;51.094;-115.362;2022-08-30T13:14:52;87640.20;;;10.10
74493;BMP180;62978;51.094;-115.362;2022-08-30T13:17:35;87644.20;;;10.10
74493;BMP180;62978;51.094;-115.362;2022-08-30T13:23:06;87652.60;;;10.10
74493;BMP180;62978;51.094;-115.362;2022-08-30T13:25:36;87651.20;;;10.10
74493;BMP180;62978;51.094;-115.362;2022-08-30T13:28:06;87652.60;;;10.20
74493;BMP180;62978;51.094;-115.362;2022-08-30T13:30:34;87651.60;;;10.20
74493;BMP180;62978;51.094;-115.362;2022-08-30T13:33:01;87652.00;;;10.20
74493;BMP180;62978;51.094;-115.362;2022-08-30T13:35:30;87650.00;;;10.10
74493;BMP180;62978;51.094;-115.362;2022-08-30T13:38:00;87652.20;;;10.10
74493;BMP180;62978;51.094;-115.362;2022-08-30T13:40:28;87651.20;;;10.00
74493;BMP180;62978;51.094;-115.362;2022-08-30T13:42:56;87652.80;;;10.00
74493;BMP180;62978;51.094;-115.362;2022-08-30T13:45:23;87654.20;;;10.00
74493;BMP180;62978;51.094;-115.362;2022-08-30T13:47:50;87660.20;;;10.10
74493;BMP180;62978;51.094;-115.362;2022-08-30T13:50:18;87661.60;;;10.10
74493;BMP180;62978;51.094;-115.362;2022-08-30T13:52:45;87665.60;;;10.10
74493;BMP180;62978;51.094;-115.362;2022-08-30T13:55:13;87664.60;;;10.20
74493;BMP180;62978;51.094;-115.362;2022-08-30T13:57:40;87664.40;;;10.20
74493;BMP180;62978;51.094;-115.362;2022-08-30T14:00:13;87664.40;;;10.20
74493;BMP180;62978;51.094;-115.362;2022-08-30T14:02:43;87666.20;;;10.30
74493;BMP180;62978;51.094;-115.362;2022-08-30T14:05:10;87664.20;;;10.30
74493;BMP180;62978;51.094;-115.362;2022-08-30T14:07:37;87672.40;;;10.32
74493;BMP180;62978;51.094;-115.362;2022-08-30T14:10:06;87667.20;;;10.40
74493;BMP180;62978;51.094;-115.362;2022-08-30T14:12:33;87671.60;;;10.40
74493;BMP180;62978;51.094;-115.362;2022-08-30T14:15:01;87670.00;;;10.40
74493;BMP180;62978;51.094;-115.362;2022-08-30T14:17:28;87672.80;;;10.42
74493;BMP180;62978;51.094;-115.362;2022-08-30T14:19:58;87669.40;;;10.50
74493;BMP180;62978;51.094;-115.362;2022-08-30T14:22:25;87669.20;;;10.56
74493;BMP180;62978;51.094;-115.362;2022-08-30T14:24:52;87675.60;;;10.70
74493;BMP180;62978;51.094;-115.362;2022-08-30T14:27:20;87675.60;;;10.80
74493;BMP180;62978;51.094;-115.362;2022-08-30T14:29:48;87677.00;;;10.90
74493;BMP180;62978;51.094;-115.362;2022-08-30T14:32:15;87680.20;;;11.00
74493;BMP180;62978;51.094;-115.362;2022-08-30T14:34:42;87679.40;;;11.10
74493;BMP180;62978;51.094;-115.362;2022-08-30T14:37:10;87679.20;;;11.20
74493;BMP180;62978;51.094;-115.362;2022-08-30T14:39:37;87681.20;;;11.30
74493;BMP180;62978;51.094;-115.362;2022-08-30T14:42:05;87681.20;;;11.40
74493;BMP180;62978;51.094;-115.362;2022-08-30T14:44:33;87681.00;;;11.50
74493;BMP180;62978;51.094;-115.362;2022-08-30T14:47:01;87683.40;;;11.60
74493;BMP180;62978;51.094;-115.362;2022-08-30T14:49:28;87682.20;;;11.70
74493;BMP180;62978;51.094;-115.362;2022-08-30T14:51:55;87688.00;;;11.80
74493;BMP180;62978;51.094;-115.362;2022-08-30T14:54:28;87685.20;;;11.90
74493;BMP180;62978;51.094;-115.362;2022-08-30T14:56:56;87684.00;;;11.90
74493;BMP180;62978;51.094;-115.362;2022-08-30T14:59:26;87682.60;;;12.00
74493;BMP180;62978;51.094;-115.362;2022-08-30T15:01:54;87684.60;;;12.10
74493;BMP180;62978;51.094;-115.362;2022-08-30T15:04:21;87689.20;;;12.22